Junction City, Oregon
Current Conditions -  °F | °C
As of 1:54 PM on Monday 20 Oct 2014 (Local Time) from KEUG Reporting Station
Light Rain Light Rain  
Wind Chill: 59°   Ceiling: 5000
Heat Index: 59°   Visibility: 10mi
Dew Point: 55°   Wind: 10mph
Humidity: 87%   Direction: 160°SSE
Pressure: 29.82"   Gusts: NA
Location:  44.22°N, 123.21°W
Report Text: KEUG 202054Z 16009KT 10SM -RA SCT029 BKN050 OVC075 15/13 A2982 RMK AO2 RAB12 SLP097 P0001 60001 T01500128 58001
Loading
Personal Weather Stations






























Interactive Weather Map
Tropical Storm Tracking
New forecast layout! Learn more

10-Day Weather Forecast

Advertisements
Track Severe Weather on mobile